Time;durP1;ratioP1;P1;durP2;ratioP2;P2;SDS_P1;SDS_P2;PMS_P1;PMS_P2;Temp;Humidity;BMP_temperature;BMP_pressure;BME280_temperature;BME280_humidity;BME280_pressure;Samples;Min_cycle;Max_cycle;Signal;HPM_P1;HPM_P2
2022/04/17 00:00:15;;;;;;;10.88;5.22;;;5.60;99.90;;;;;;4978256;28;20050;-70
2022/04/17 00:02:41;;;;;;;7.60;5.28;;;5.50;99.90;;;;;;4995469;28;20046;-70
2022/04/17 00:05:08;;;;;;;8.35;5.25;;;5.50;99.90;;;;;;4995694;28;20521;-71
2022/04/17 00:07:34;;;;;;;8.88;6.05;;;5.40;99.90;;;;;;4994449;28;20485;-70
2022/04/17 00:10:00;;;;;;;10.00;5.35;;;5.40;99.90;;;;;;4978626;28;20050;-71
2022/04/17 00:12:26;;;;;;;7.85;5.28;;;5.80;99.90;;;;;;4997270;28;20049;-70
2022/04/17 00:14:54;;;;;;;10.07;5.80;;;5.30;99.90;;;;;;4998360;28;20050;-72
2022/04/17 00:17:20;;;;;;;8.40;5.57;;;5.30;99.90;;;;;;4999016;28;20073;-71
2022/04/17 00:19:46;;;;;;;9.52;6.10;;;5.30;99.90;;;;;;4981961;28;20042;-70
2022/04/17 00:22:15;;;;;;;10.55;5.38;;;5.30;99.90;;;;;;4999392;28;20101;-69
2022/04/17 00:24:42;;;;;;;6.65;5.10;;;5.20;99.90;;;;;;4999055;28;20383;-70
2022/04/17 00:27:08;;;;;;;8.02;5.45;;;5.20;99.90;;;;;;4999184;28;20098;-71
2022/04/17 00:29:33;;;;;;;7.70;5.38;;;5.10;99.90;;;;;;4997961;28;20046;-72
2022/04/17 00:31:59;;;;;;;8.05;4.88;;;5.00;99.90;;;;;;4999266;28;20050;-70
2022/04/17 00:34:26;;;;;;;9.40;5.43;;;5.00;99.90;;;;;;4999270;28;20043;-70
2022/04/17 00:36:52;;;;;;;11.45;6.38;;;5.00;99.90;;;;;;4986765;28;20463;-71
2022/04/17 00:39:18;;;;;;;8.82;5.25;;;4.90;99.90;;;;;;4946531;28;20046;-72
2022/04/17 00:41:46;;;;;;;8.55;5.70;;;4.90;99.90;;;;;;4979157;28;20117;-76
2022/04/17 00:44:13;;;;;;;10.13;6.53;;;4.80;99.90;;;;;;4979153;28;20047;-72
2022/04/17 00:46:40;;;;;;;15.25;5.82;;;4.80;99.90;;;;;;4978956;28;20058;-73
2022/04/17 00:49:08;;;;;;;9.77;6.47;;;4.80;99.90;;;;;;4979529;28;20061;-72
2022/04/17 00:51:36;;;;;;;7.53;5.50;;;4.70;99.90;;;;;;4961987;28;20467;-73
2022/04/17 00:54:07;;;;;;;11.82;6.55;;;4.70;99.90;;;;;;4979143;28;20046;-73
2022/04/17 00:56:34;;;;;;;10.82;6.05;;;4.70;99.90;;;;;;4979038;28;20406;-72
2022/04/17 00:59:02;;;;;;;12.35;6.75;;;4.60;99.90;;;;;;4979381;28;20054;-72
2022/04/17 01:01:32;;;;;;;7.57;6.10;;;4.60;99.90;;;;;;4978694;28;20054;-74
2022/04/17 01:03:58;;;;;;;7.70;5.88;;;4.60;99.90;;;;;;4979182;28;20414;-72
2022/04/17 01:06:24;;;;;;;7.50;5.88;;;4.60;99.90;;;;;;4986134;28;20034;-73
2022/04/17 01:08:50;;;;;;;10.70;7.32;;;4.50;99.90;;;;;;4998256;28;20077;-71
2022/04/17 01:11:17;;;;;;;16.90;6.88;;;4.50;99.90;;;;;;4998686;28;20082;-72
2022/04/17 01:13:43;;;;;;;11.48;6.43;;;4.40;99.90;;;;;;4998410;28;20050;-73
2022/04/17 01:16:10;;;;;;;8.75;6.30;;;4.40;99.90;;;;;;4998147;28;20101;-73
2022/04/17 01:19:00;;;;;;;9.77;6.45;;;4.40;99.90;;;;;;4998248;28;20057;-73
2022/04/17 01:21:26;;;;;;;10.93;6.38;;;4.30;99.90;;;;;;4997832;28;20153;-74
2022/04/17 01:26:58;;;;;;;14.40;7.00;;;4.20;99.90;;;;;;4997885;28;20415;-75
2022/04/17 01:29:38;;;;;;;10.35;6.53;;;4.20;99.90;;;;;;4997993;28;20081;-74
2022/04/17 01:32:10;;;;;;;11.52;7.03;;;4.20;99.90;;;;;;4998124;28;20102;-72
2022/04/17 01:34:37;;;;;;;11.95;6.88;;;4.20;99.90;;;;;;4997708;28;20100;-73
2022/04/17 01:37:04;;;;;;;10.90;7.05;;;4.20;99.90;;;;;;4985272;28;20371;-72
2022/04/17 01:39:30;;;;;;;13.20;7.28;;;4.20;99.90;;;;;;4978049;28;20054;-74
2022/04/17 01:41:57;;;;;;;14.23;7.13;;;4.20;99.90;;;;;;4978541;28;20051;-73
2022/04/17 01:44:24;;;;;;;10.55;7.35;;;4.20;99.90;;;;;;4977980;28;20043;-72
2022/04/17 01:46:51;;;;;;;9.25;6.57;;;4.20;99.90;;;;;;4961440;28;20058;-73
2022/04/17 01:49:17;;;;;;;10.98;7.75;;;4.20;99.90;;;;;;4994755;28;20053;-74
2022/04/17 01:51:44;;;;;;;10.25;7.05;;;4.20;99.90;;;;;;4997369;28;20046;-72
2022/04/17 01:54:14;;;;;;;9.82;6.75;;;4.20;99.90;;;;;;4980366;28;20054;-74
2022/04/17 01:56:42;;;;;;;9.75;6.90;;;4.10;99.90;;;;;;4979389;28;20042;-72
2022/04/17 01:59:09;;;;;;;9.52;7.10;;;4.10;99.90;;;;;;4997278;28;20039;-72
2022/04/17 02:01:35;;;;;;;9.48;6.75;;;4.00;99.90;;;;;;4997424;28;20046;-74
2022/04/17 02:04:03;;;;;;;12.63;6.60;;;3.90;99.90;;;;;;4980625;28;20046;-72
2022/04/17 02:06:28;;;;;;;9.75;6.88;;;3.90;99.90;;;;;;4980542;28;20054;-72
2022/04/17 02:08:55;;;;;;;13.82;7.05;;;3.80;99.90;;;;;;4997185;28;20050;-74
2022/04/17 02:11:22;;;;;;;10.15;7.00;;;3.90;99.90;;;;;;4997232;28;20046;-73
2022/04/17 02:13:51;;;;;;;9.32;7.10;;;3.70;99.90;;;;;;4996712;28;20050;-72
2022/04/17 02:16:17;;;;;;;10.32;7.30;;;3.70;99.90;;;;;;4996991;28;20427;-73
2022/04/17 02:18:47;;;;;;;10.68;7.22;;;3.60;99.90;;;;;;4964072;28;20050;-73
2022/04/17 02:21:14;;;;;;;11.02;7.53;;;3.60;99.90;;;;;;4979455;28;20517;-73
2022/04/17 02:23:43;;;;;;;11.52;7.80;;;3.60;99.90;;;;;;4996866;28;20038;-73
2022/04/17 02:26:10;;;;;;;11.25;7.82;;;3.50;99.90;;;;;;4978884;28;20064;-74
2022/04/17 02:28:37;;;;;;;10.98;7.43;;;3.60;99.90;;;;;;4996685;28;20120;-74
2022/04/17 02:31:04;;;;;;;13.38;7.95;;;3.50;99.90;;;;;;4996104;28;20050;-72
2022/04/17 02:33:30;;;;;;;10.55;7.28;;;3.50;99.90;;;;;;4996856;28;20057;-74
2022/04/17 02:35:56;;;;;;;13.27;7.70;;;3.50;99.90;;;;;;4996103;28;20062;-75
2022/04/17 02:38:21;;;;;;;11.13;7.40;;;3.40;99.90;;;;;;4996694;28;20177;-73
2022/04/17 02:40:47;;;;;;;10.95;7.65;;;3.40;99.90;;;;;;4996384;28;20054;-72
2022/04/17 02:43:13;;;;;;;11.75;8.50;;;3.40;99.90;;;;;;4996455;28;20057;-73
2022/04/17 02:45:38;;;;;;;12.65;8.50;;;3.40;99.90;;;;;;4996549;28;20143;-72
2022/04/17 02:48:04;;;;;;;11.38;8.23;;;3.40;99.90;;;;;;4996257;28;20035;-73
2022/04/17 02:50:30;;;;;;;11.88;8.35;;;3.30;99.90;;;;;;4996385;28;20367;-72
2022/04/17 02:52:56;;;;;;;13.38;8.70;;;3.30;99.90;;;;;;4979720;28;20058;-74
2022/04/17 02:55:22;;;;;;;11.15;8.18;;;3.30;99.90;;;;;;4992845;28;20074;-73
2022/04/17 02:57:48;;;;;;;12.02;8.30;;;3.30;99.90;;;;;;4995661;28;20050;-73
2022/04/17 03:00:14;;;;;;;10.77;7.80;;;3.20;99.90;;;;;;4996421;28;20042;-75
2022/04/17 03:05:36;;;;;;;13.75;9.23;;;3.10;99.90;;;;;;4996393;28;20116;-73
2022/04/17 03:08:07;;;;;;;15.85;8.57;;;3.10;99.90;;;;;;4996302;28;20050;-73
2022/04/17 03:10:35;;;;;;;13.05;8.02;;;3.00;99.90;;;;;;4995757;28;20129;-73
2022/04/17 03:13:00;;;;;;;14.70;9.40;;;3.00;99.90;;;;;;4979283;28;20459;-72
2022/04/17 03:15:26;;;;;;;11.95;8.13;;;3.00;99.90;;;;;;4996006;28;20088;-73
2022/04/17 03:17:52;;;;;;;11.82;8.10;;;3.00;99.90;;;;;;4996301;28;20407;-73
2022/04/17 03:20:19;;;;;;;14.48;8.77;;;3.00;99.90;;;;;;4995678;28;20043;-75
2022/04/17 03:22:44;;;;;;;14.32;8.93;;;3.00;99.90;;;;;;4996162;28;20104;-73
2022/04/17 03:25:11;;;;;;;12.95;8.75;;;3.00;99.90;;;;;;4978178;28;20038;-73
2022/04/17 03:27:36;;;;;;;12.98;8.98;;;3.00;99.90;;;;;;4995887;28;20073;-72
2022/04/17 03:30:03;;;;;;;12.57;9.02;;;3.00;99.90;;;;;;4995945;28;20039;-73
2022/04/17 03:32:29;;;;;;;12.38;9.23;;;3.00;99.90;;;;;;4995737;28;20042;-72
2022/04/17 03:34:55;;;;;;;13.68;9.52;;;3.10;99.90;;;;;;4995917;28;20057;-74
2022/04/17 03:37:20;;;;;;;14.27;9.52;;;3.10;99.90;;;;;;4995280;28;20108;-73
2022/04/17 03:39:48;;;;;;;13.15;8.80;;;3.00;99.90;;;;;;4995479;28;20050;-72
2022/04/17 03:42:15;;;;;;;13.40;9.48;;;3.00;99.90;;;;;;4995527;28;20054;-73
2022/04/17 03:44:41;;;;;;;15.23;9.13;;;3.00;99.90;;;;;;4995594;28;20046;-73
2022/04/17 03:47:06;;;;;;;12.95;9.35;;;3.00;99.90;;;;;;4995561;28;20090;-73
2022/04/17 03:49:32;;;;;;;13.90;9.57;;;3.00;99.90;;;;;;4995439;28;20039;-74
2022/04/17 03:52:00;;;;;;;12.77;9.27;;;3.00;99.90;;;;;;4995342;28;20081;-73
2022/04/17 03:54:26;;;;;;;13.57;9.30;;;2.90;99.90;;;;;;4993707;28;20050;-73
2022/04/17 03:56:52;;;;;;;12.43;9.15;;;2.90;99.90;;;;;;4982044;28;20379;-73
2022/04/17 03:59:18;;;;;;;13.38;9.60;;;2.90;99.90;;;;;;4978296;28;20108;-74
2022/04/17 04:01:46;;;;;;;13.32;9.30;;;2.80;99.90;;;;;;4978357;28;20062;-73
2022/04/17 04:04:12;;;;;;;13.98;9.50;;;2.80;99.90;;;;;;4995387;28;20050;-74
2022/04/17 04:06:37;;;;;;;12.55;10.05;;;2.70;99.90;;;;;;4995375;28;20054;-72
2022/04/17 04:09:03;;;;;;;13.27;9.57;;;2.70;99.90;;;;;;4995748;28;20050;-73
2022/04/17 04:11:29;;;;;;;14.45;9.90;;;2.70;99.90;;;;;;4978141;28;20061;-74
2022/04/17 04:13:55;;;;;;;13.07;9.57;;;2.70;99.90;;;;;;4977919;28;20493;-72
2022/04/17 04:16:20;;;;;;;14.60;10.10;;;2.70;99.90;;;;;;4978723;28;20054;-72
2022/04/17 04:18:46;;;;;;;13.25;9.38;;;2.60;99.90;;;;;;4995212;28;20053;-73
2022/04/17 04:21:12;;;;;;;14.45;9.48;;;2.60;99.90;;;;;;4995045;28;20042;-73
2022/04/17 04:23:38;;;;;;;14.10;9.80;;;2.70;99.90;;;;;;4995133;28;20050;-72
2022/04/17 04:26:04;;;;;;;14.10;9.85;;;2.70;99.90;;;;;;4994621;28;20066;-74
2022/04/17 04:28:33;;;;;;;13.63;10.05;;;2.60;99.90;;;;;;4995134;28;20066;-73
2022/04/17 04:31:05;;;;;;;14.77;10.52;;;2.60;99.90;;;;;;4995347;28;20051;-74
2022/04/17 04:33:32;;;;;;;15.68;10.77;;;2.60;99.90;;;;;;4995677;28;20337;-73
2022/04/17 04:35:59;;;;;;;15.88;11.10;;;2.60;99.90;;;;;;4978744;28;20482;-73
2022/04/17 04:38:25;;;;;;;15.18;11.45;;;2.60;99.90;;;;;;4995508;28;20057;-73
2022/04/17 04:40:54;;;;;;;15.20;10.95;;;2.60;99.90;;;;;;4995200;28;20050;-73
2022/04/17 04:43:20;;;;;;;18.52;11.10;;;2.70;99.90;;;;;;4978195;28;20050;-73
2022/04/17 04:51:14;;;;;;;16.15;11.52;;;3.10;99.90;;;;;;4977883;28;20055;-72
2022/04/17 04:53:41;;;;;;;16.88;11.52;;;3.10;99.90;;;;;;4995069;28;20428;-74
2022/04/17 04:56:08;;;;;;;15.40;11.48;;;3.20;99.90;;;;;;4994710;28;20398;-74
2022/04/17 04:58:34;;;;;;;16.30;11.00;;;3.20;99.90;;;;;;4995638;28;20114;-72
2022/04/17 05:01:00;;;;;;;14.80;11.43;;;3.40;99.90;;;;;;4998228;28;20042;-72
2022/04/17 05:03:25;;;;;;;17.90;11.73;;;3.50;99.90;;;;;;4989733;28;20053;-73
2022/04/17 05:05:52;;;;;;;16.48;11.80;;;3.50;99.90;;;;;;4961840;28;20046;-73
2022/04/17 05:08:19;;;;;;;16.65;12.75;;;3.50;99.90;;;;;;4978712;28;20471;-73
2022/04/17 05:10:45;;;;;;;14.70;11.40;;;3.60;99.90;;;;;;4979120;28;20058;-72
2022/04/17 05:13:10;;;;;;;15.57;11.80;;;3.60;99.90;;;;;;4978621;28;20046;-73
2022/04/17 05:15:36;;;;;;;19.80;11.75;;;3.70;99.90;;;;;;4978695;28;20121;-72
2022/04/17 05:18:02;;;;;;;16.20;11.93;;;3.70;99.90;;;;;;4978759;28;20121;-74
2022/04/17 05:20:27;;;;;;;16.17;11.48;;;3.70;99.90;;;;;;4978730;28;20343;-75
2022/04/17 05:23:03;;;;;;;16.80;12.27;;;3.70;99.90;;;;;;4975485;28;20055;-71
2022/04/17 05:25:29;;;;;;;18.05;12.23;;;3.80;99.90;;;;;;4989897;28;20081;-73
2022/04/17 05:27:54;;;;;;;17.35;12.50;;;3.80;99.90;;;;;;4997843;28;20043;-73
2022/04/17 05:30:20;;;;;;;16.60;12.50;;;3.90;99.90;;;;;;4997630;28;20517;-73
2022/04/17 05:32:45;;;;;;;18.13;12.88;;;3.90;99.90;;;;;;4998104;28;20053;-71
2022/04/17 05:35:11;;;;;;;20.40;14.05;;;4.00;99.90;;;;;;4997602;28;20355;-71
2022/04/17 05:37:36;;;;;;;17.65;12.98;;;4.10;99.90;;;;;;4997957;28;20136;-73
2022/04/17 05:40:03;;;;;;;18.92;12.55;;;4.30;99.90;;;;;;4997343;28;20042;-73
2022/04/17 05:42:29;;;;;;;20.50;13.02;;;4.50;99.90;;;;;;4980307;28;20046;-72
2022/04/17 05:44:54;;;;;;;18.45;12.18;;;4.50;99.90;;;;;;4996723;28;20043;-73
2022/04/17 05:47:20;;;;;;;19.27;13.13;;;4.60;99.90;;;;;;4997025;28;20343;-72
2022/04/17 05:49:46;;;;;;;20.13;13.13;;;4.90;99.90;;;;;;4996826;28;20046;-73
2022/04/17 05:52:17;;;;;;;17.63;12.77;;;4.90;99.90;;;;;;4984035;28;20054;-75
2022/04/17 05:54:43;;;;;;;21.80;12.20;;;5.20;99.90;;;;;;4998599;28;20117;-70
2022/04/17 05:57:10;;;;;;;16.90;11.77;;;6.00;99.90;;;;;;4992039;28;20415;-72
2022/04/17 05:59:36;;;;;;;14.77;11.98;;;7.30;99.90;;;;;;4983902;28;20041;-71
2022/04/17 06:02:03;;;;;;;16.63;12.30;;;8.60;99.90;;;;;;4983252;28;20135;-71
2022/04/17 06:04:29;;;;;;;15.00;11.52;;;10.00;99.90;;;;;;4978531;28;20059;-71
2022/04/17 06:06:54;;;;;;;15.40;11.02;;;11.10;99.90;;;;;;4996721;28;20121;-72
2022/04/17 06:09:20;;;;;;;15.30;11.45;;;12.00;99.90;;;;;;4995456;28;20046;-73
2022/04/17 06:11:45;;;;;;;17.02;11.05;;;12.70;99.90;;;;;;4996238;28;20046;-72
2022/04/17 06:14:11;;;;;;;16.33;11.68;;;13.00;99.90;;;;;;4997324;28;20052;-72
2022/04/17 06:16:36;;;;;;;17.52;10.98;;;13.00;99.90;;;;;;4996624;28;20124;-73
2022/04/17 06:19:02;;;;;;;13.77;10.50;;;13.50;99.50;;;;;;4979484;28;20371;-72
2022/04/17 06:21:28;;;;;;;13.35;10.10;;;13.70;98.90;;;;;;4996662;28;20057;-70
2022/04/17 06:23:54;;;;;;;13.32;10.77;;;14.60;99.00;;;;;;4996563;28;20038;-72
2022/04/17 06:26:20;;;;;;;12.65;10.23;;;15.10;97.30;;;;;;4996666;28;20065;-72
2022/04/17 06:28:45;;;;;;;14.25;10.80;;;15.50;94.90;;;;;;4996692;28;20062;-74
2022/04/17 06:31:11;;;;;;;12.77;10.48;;;15.70;95.30;;;;;;4996262;28;20038;-74
2022/04/17 06:33:37;;;;;;;13.70;10.35;;;15.20;93.20;;;;;;4996445;28;20057;-72
2022/04/17 06:36:02;;;;;;;13.75;10.07;;;15.40;91.20;;;;;;4995914;28;20374;-71
2022/04/17 06:38:28;;;;;;;14.18;10.10;;;15.10;92.80;;;;;;4996046;28;20046;-71
2022/04/17 06:40:54;;;;;;;12.63;10.02;;;15.00;92.70;;;;;;4996578;28;20354;-72
2022/04/17 06:43:19;;;;;;;13.75;10.82;;;15.50;92.60;;;;;;4995588;28;20053;-72
2022/04/17 06:45:45;;;;;;;13.43;10.27;;;15.80;92.60;;;;;;4978775;28;20410;-71
2022/04/17 06:48:19;;;;;;;14.85;10.02;;;16.00;91.10;;;;;;4996622;28;20046;-73
2022/04/17 06:50:45;;;;;;;12.75;10.27;;;15.60;91.40;;;;;;4995147;28;20092;-72
2022/04/17 06:53:11;;;;;;;13.63;10.40;;;13.80;91.20;;;;;;4978231;28;20046;-71
2022/04/17 06:55:37;;;;;;;16.15;11.20;;;13.10;93.50;;;;;;4995746;28;20521;-74
2022/04/17 06:58:03;;;;;;;15.65;11.10;;;12.40;94.80;;;;;;4995702;28;20046;-71
2022/04/17 07:00:28;;;;;;;17.00;11.93;;;11.70;96.80;;;;;;4995017;28;20089;-71
2022/04/17 07:02:54;;;;;;;15.27;10.95;;;11.30;97.80;;;;;;4995427;28;20125;-71
2022/04/17 07:05:20;;;;;;;15.55;10.95;;;11.00;99.00;;;;;;4995882;28;20046;-74
2022/04/17 07:07:46;;;;;;;14.43;11.25;;;10.70;99.90;;;;;;4995354;28;20046;-69
2022/04/17 07:10:12;;;;;;;14.80;11.10;;;10.60;99.90;;;;;;4995466;28;20421;-72
2022/04/17 07:12:39;;;;;;;16.20;11.30;;;10.50;99.90;;;;;;4995322;28;20042;-68
2022/04/17 07:15:06;;;;;;;16.45;11.40;;;10.50;99.90;;;;;;4992646;28;20101;-72
2022/04/17 07:17:36;;;;;;;14.20;10.60;;;10.50;99.90;;;;;;4996382;28;20445;-71
2022/04/17 07:20:07;;;;;;;15.07;11.20;;;10.60;99.90;;;;;;4997331;28;20046;-72
2022/04/17 07:22:37;;;;;;;14.50;11.40;;;10.60;99.90;;;;;;4978266;28;20050;-70
2022/04/17 07:25:05;;;;;;;16.27;10.45;;;10.60;99.90;;;;;;4995661;28;20050;-71
2022/04/17 07:27:36;;;;;;;17.70;10.65;;;10.70;99.90;;;;;;4995011;28;20053;-72
2022/04/17 07:30:12;;;;;;;17.13;10.73;;;10.80;99.90;;;;;;4995965;28;20043;-70
2022/04/17 07:32:42;;;;;;;13.90;10.55;;;10.70;99.90;;;;;;4995715;28;20188;-71
2022/04/17 07:35:09;;;;;;;16.17;11.00;;;10.80;99.90;;;;;;4978587;28;20078;-71
2022/04/17 07:37:36;;;;;;;13.88;10.02;;;10.80;99.90;;;;;;4977895;28;20038;-70
2022/04/17 07:40:26;;;;;;;12.73;9.63;;;10.80;99.90;;;;;;4978455;28;20375;-71
2022/04/17 07:42:58;;;;;;;14.05;9.25;;;10.90;99.90;;;;;;4995592;28;20339;-74
2022/04/17 07:45:24;;;;;;;13.88;9.80;;;11.10;99.90;;;;;;4977924;28;20041;-70
2022/04/17 07:47:51;;;;;;;13.00;9.85;;;10.90;99.90;;;;;;4996085;28;20054;-72
2022/04/17 07:50:21;;;;;;;11.98;8.95;;;10.90;99.90;;;;;;4978478;28;20058;-69
2022/04/17 07:52:46;;;;;;;12.85;8.93;;;11.00;99.90;;;;;;4995706;28;20049;-71
2022/04/17 07:55:13;;;;;;;14.48;9.02;;;11.10;99.90;;;;;;4992534;28;20046;-72
2022/04/17 08:00:27;;;;;;;10.93;7.80;;;11.30;99.90;;;;;;4994365;28;20371;-71
2022/04/17 08:03:06;;;;;;;10.40;7.55;;;11.40;99.90;;;;;;4995270;28;20055;-70
2022/04/17 08:05:37;;;;;;;11.02;7.43;;;11.50;99.90;;;;;;4995526;28;20112;-69
2022/04/17 08:08:03;;;;;;;10.98;8.07;;;11.50;99.90;;;;;;4978281;28;20455;-70
2022/04/17 08:10:28;;;;;;;11.85;7.97;;;11.70;99.90;;;;;;4995461;28;20038;-71
2022/04/17 08:12:54;;;;;;;10.43;7.55;;;12.50;99.40;;;;;;4993805;28;20042;-70
2022/04/17 08:15:19;;;;;;;10.32;7.53;;;13.80;98.30;;;;;;4994934;28;20125;-71
2022/04/17 08:17:45;;;;;;;10.73;7.75;;;14.80;96.10;;;;;;4978835;28;20359;-74
2022/04/17 08:20:10;;;;;;;9.07;7.03;;;15.60;93.80;;;;;;4995313;28;20125;-71
2022/04/17 08:22:36;;;;;;;10.90;7.35;;;16.30;93.20;;;;;;4994146;28;20152;-70
2022/04/17 08:25:02;;;;;;;9.27;7.25;;;16.80;90.00;;;;;;4994934;28;20061;-70
2022/04/17 08:27:28;;;;;;;10.10;7.25;;;17.40;90.30;;;;;;4995454;28;20058;-70
2022/04/17 08:29:53;;;;;;;10.30;6.97;;;17.80;86.70;;;;;;4977543;28;20473;-71
2022/04/17 08:32:19;;;;;;;8.63;6.55;;;18.30;84.20;;;;;;4995109;28;20065;-70
2022/04/17 08:34:45;;;;;;;8.82;6.40;;;18.40;83.10;;;;;;4999067;28;20065;-70
2022/04/17 08:37:10;;;;;;;10.88;6.13;;;18.70;76.00;;;;;;4999270;28;20053;-72
2022/04/17 08:39:36;;;;;;;9.13;6.00;;;18.80;74.90;;;;;;4981796;28;20058;-70
2022/04/17 08:42:04;;;;;;;10.13;6.22;;;18.50;73.40;;;;;;4998954;28;20057;-71
2022/04/17 08:44:30;;;;;;;10.18;6.38;;;18.40;75.00;;;;;;4998729;28;20355;-75
2022/04/17 08:46:56;;;;;;;8.38;5.97;;;18.70;74.00;;;;;;4998074;28;20049;-71
2022/04/17 08:49:24;;;;;;;11.02;7.00;;;18.90;74.60;;;;;;4998112;28;20050;-70
2022/04/17 08:51:53;;;;;;;8.77;6.93;;;18.40;70.70;;;;;;4997678;28;20470;-69
2022/04/17 08:54:20;;;;;;;8.45;5.85;;;18.40;72.80;;;;;;4978480;28;20039;-72
2022/04/17 08:56:46;;;;;;;9.07;6.05;;;18.20;72.30;;;;;;4998091;28;20122;-70
2022/04/17 08:59:13;;;;;;;9.88;6.15;;;17.70;73.40;;;;;;4998008;28;20085;-69
2022/04/17 09:01:39;;;;;;;10.93;6.50;;;17.20;73.00;;;;;;4981151;28;20046;-70
2022/04/17 09:04:05;;;;;;;8.35;5.57;;;17.00;74.10;;;;;;4980960;28;20062;-69
2022/04/17 09:06:31;;;;;;;7.70;5.55;;;16.80;72.40;;;;;;4998411;28;20375;-69
2022/04/17 09:08:58;;;;;;;8.25;6.25;;;16.50;74.40;;;;;;4998454;28;20104;-71
2022/04/17 09:11:29;;;;;;;10.80;6.43;;;16.10;74.50;;;;;;4997944;28;20124;-70
2022/04/17 09:13:59;;;;;;;8.85;5.97;;;15.90;73.00;;;;;;4980778;28;20050;-72
2022/04/17 09:16:29;;;;;;;8.65;6.07;;;15.70;74.50;;;;;;4998213;28;20038;-74
2022/04/17 09:18:56;;;;;;;10.15;5.70;;;15.70;75.90;;;;;;4998140;28;20121;-71
2022/04/17 09:21:29;;;;;;;10.43;5.97;;;15.50;78.00;;;;;;4997943;28;20061;-71
2022/04/17 09:24:22;;;;;;;8.00;6.07;;;15.70;77.60;;;;;;4998225;28;20046;-71
2022/04/17 09:26:55;;;;;;;8.82;6.32;;;16.00;74.00;;;;;;4997974;28;20065;-71
2022/04/17 09:29:29;;;;;;;8.63;5.93;;;16.40;75.30;;;;;;4964152;28;20058;-71
2022/04/17 09:32:00;;;;;;;8.32;5.50;;;16.90;76.60;;;;;;4980716;28;20050;-70
2022/04/17 09:34:27;;;;;;;9.98;5.78;;;17.30;73.00;;;;;;4997906;28;20062;-71
2022/04/17 09:36:59;;;;;;;8.73;6.00;;;17.90;73.70;;;;;;4997454;28;20407;-71
2022/04/17 09:39:32;;;;;;;7.25;5.30;;;18.50;72.60;;;;;;4997630;28;20046;-70
2022/04/17 09:42:00;;;;;;;10.70;5.63;;;18.40;66.20;;;;;;4997699;28;20042;-71
2022/04/17 09:44:46;;;;;;;8.60;5.70;;;17.80;69.20;;;;;;4997446;28;20074;-70
2022/04/17 09:47:20;;;;;;;8.18;4.90;;;17.10;70.50;;;;;;4980592;28;20354;-70
2022/04/17 09:49:54;;;;;;;10.10;6.03;;;16.70;73.90;;;;;;4980557;28;20046;-70
2022/04/17 09:52:20;;;;;;;7.05;4.60;;;16.40;74.80;;;;;;4997443;28;20047;-72
2022/04/17 09:54:47;;;;;;;9.00;5.10;;;16.20;73.20;;;;;;4997403;28;20053;-71
2022/04/17 09:57:18;;;;;;;9.50;5.47;;;16.10;73.70;;;;;;4997422;28;20046;-71
2022/04/17 09:59:44;;;;;;;13.15;4.80;;;15.90;73.70;;;;;;4984295;28;20372;-70
2022/04/17 10:02:12;;;;;;;7.32;5.20;;;15.90;74.00;;;;;;4977876;28;20047;-72
2022/04/17 10:04:39;;;;;;;8.25;4.72;;;15.70;70.90;;;;;;4977753;28;20057;-69
2022/04/17 10:07:06;;;;;;;7.30;4.50;;;15.60;71.50;;;;;;4965224;28;20046;-70
2022/04/17 10:09:32;;;;;;;9.02;5.45;;;15.60;69.80;;;;;;4997465;28;20042;-70
2022/04/17 10:11:59;;;;;;;9.57;6.32;;;15.50;66.90;;;;;;4997120;28;20053;-71
2022/04/17 10:14:27;;;;;;;7.38;5.22;;;15.10;69.20;;;;;;4997036;28;20053;-70
2022/04/17 10:16:55;;;;;;;10.02;6.20;;;15.20;72.60;;;;;;4979692;28;20489;-69
2022/04/17 10:19:24;;;;;;;11.05;6.03;;;15.00;70.80;;;;;;4997204;28;20391;-70
2022/04/17 10:21:50;;;;;;;8.88;6.00;;;15.20;74.10;;;;;;4979678;28;20399;-70
2022/04/17 10:24:21;;;;;;;10.60;6.50;;;15.30;74.40;;;;;;4996502;28;20074;-69
2022/04/17 10:26:51;;;;;;;7.95;5.78;;;15.50;73.30;;;;;;4996396;28;20062;-71
2022/04/17 10:29:22;;;;;;;10.50;6.20;;;15.10;71.40;;;;;;4987171;28;20051;-70
2022/04/17 10:32:22;;;;;;;7.50;5.32;;;15.20;71.40;;;;;;4990895;28;20035;-69
2022/04/17 10:34:53;;;;;;;9.05;5.25;;;15.20;71.90;;;;;;4979955;28;20159;-71
2022/04/17 10:37:22;;;;;;;9.80;6.00;;;15.40;74.50;;;;;;4996711;28;20046;-70
2022/04/17 10:39:51;;;;;;;8.80;4.63;;;15.60;73.70;;;;;;4996622;28;20082;-70
2022/04/17 10:42:17;;;;;;;6.90;4.35;;;15.80;73.30;;;;;;4996846;28;20390;-70
2022/04/17 10:44:42;;;;;;;7.10;4.78;;;15.80;70.10;;;;;;4996526;28;20085;-71
2022/04/17 10:47:20;;;;;;;8.00;4.88;;;15.80;68.20;;;;;;4996384;28;20054;-71
2022/04/17 10:49:53;;;;;;;7.97;4.68;;;15.70;67.60;;;;;;4996719;28;20046;-71
2022/04/17 10:52:33;;;;;;;7.35;4.53;;;15.60;65.70;;;;;;4996526;28;20061;-70
2022/04/17 10:55:14;;;;;;;7.45;3.70;;;15.50;65.70;;;;;;4996249;28;20399;-71
2022/04/17 10:57:48;;;;;;;6.18;4.07;;;15.20;62.50;;;;;;4979379;28;20054;-71
2022/04/17 11:00:28;;;;;;;5.63;3.75;;;15.40;64.90;;;;;;4978956;28;20065;-69
2022/04/17 11:02:58;;;;;;;6.88;4.00;;;15.60;65.80;;;;;;4976801;28;20118;-70
2022/04/17 11:06:09;;;;;;;8.20;4.22;;;15.60;65.00;;;;;;4959286;28;20050;-72
2022/04/17 11:08:24;;;;;;;6.80;3.95;;;15.80;66.10;;;;;;4977011;28;20074;-71
2022/04/17 11:10:53;;;;;;;7.28;4.35;;;16.10;69.70;;;;;;4976179;28;20487;-73
2022/04/17 11:13:18;;;;;;;7.22;4.32;;;16.30;67.70;;;;;;4976595;28;20046;-71
2022/04/17 11:15:52;;;;;;;8.00;4.55;;;16.40;68.30;;;;;;4976744;28;20086;-71
2022/04/17 11:18:23;;;;;;;9.48;4.68;;;16.50;65.40;;;;;;4976792;28;20054;-71
2022/04/17 11:20:53;;;;;;;6.63;4.22;;;16.60;66.20;;;;;;4976323;28;20122;-72
2022/04/17 11:23:48;;;;;;;6.10;3.85;;;16.80;66.50;;;;;;4976784;28;20101;-71
2022/04/17 11:26:13;;;;;;;4.82;3.33;;;16.90;66.40;;;;;;4971745;28;20046;-70
2022/04/17 11:28:39;;;;;;;6.32;4.35;;;17.00;65.90;;;;;;4982104;28;20514;-72
2022/04/17 11:31:05;;;;;;;7.28;4.75;;;17.10;64.10;;;;;;4979437;28;20129;-71
2022/04/17 11:33:30;;;;;;;8.73;4.38;;;17.10;60.70;;;;;;4995548;28;20042;-72
2022/04/17 11:35:59;;;;;;;5.82;3.90;;;16.90;63.90;;;;;;4978474;28;20050;-71
2022/04/17 11:38:26;;;;;;;7.35;4.15;;;16.90;61.60;;;;;;4978485;28;20125;-71
2022/04/17 11:40:52;;;;;;;8.70;4.55;;;17.10;64.10;;;;;;4995682;28;20082;-72
2022/04/17 11:43:19;;;;;;;6.30;3.85;;;16.80;62.30;;;;;;4978516;28;20371;-70
2022/04/17 11:45:46;;;;;;;7.22;4.18;;;17.10;64.50;;;;;;4995849;28;20136;-70
2022/04/17 11:48:14;;;;;;;6.72;4.38;;;17.20;63.80;;;;;;4978733;28;20038;-71
2022/04/17 11:50:41;;;;;;;7.82;4.38;;;17.20;60.80;;;;;;4995655;28;20050;-70
2022/04/17 11:53:14;;;;;;;8.57;4.45;;;17.30;62.00;;;;;;4995583;28;20096;-70
2022/04/17 11:55:45;;;;;;;6.80;4.30;;;17.20;58.60;;;;;;4995579;28;20082;-74
2022/04/17 11:58:23;;;;;;;7.88;4.70;;;17.30;62.10;;;;;;4994970;28;20042;-70
2022/04/17 12:00:57;;;;;;;6.78;4.40;;;17.30;60.30;;;;;;4995383;28;20061;-71
2022/04/17 12:03:31;;;;;;;6.97;4.05;;;17.20;59.80;;;;;;4995891;28;20054;-70
2022/04/17 12:05:57;;;;;;;9.10;4.55;;;17.40;62.90;;;;;;4995487;28;20065;-71
2022/04/17 12:08:22;;;;;;;6.93;4.28;;;17.50;61.30;;;;;;4979906;28;20054;-72
2022/04/17 12:10:53;;;;;;;8.27;4.78;;;17.60;60.80;;;;;;4999273;28;20142;-70
2022/04/17 12:13:20;;;;;;;7.05;4.88;;;17.50;58.10;;;;;;4999313;28;20050;-70
2022/04/17 12:15:57;;;;;;;6.53;4.90;;;17.40;59.10;;;;;;4999489;28;20069;-70
2022/04/17 12:18:22;;;;;;;7.53;4.68;;;17.20;59.70;;;;;;4999236;28;20059;-70
2022/04/17 12:20:55;;;;;;;8.48;5.10;;;17.30;61.20;;;;;;4965730;28;20370;-71
2022/04/17 12:23:22;;;;;;;7.20;5.68;;;17.50;59.80;;;;;;4999316;28;20374;-70
2022/04/17 12:25:49;;;;;;;7.15;4.72;;;17.50;62.20;;;;;;4998960;28;20130;-72
2022/04/17 12:28:14;;;;;;;7.13;5.13;;;17.60;63.50;;;;;;4998751;28;20129;-69
2022/04/17 12:30:41;;;;;;;8.30;4.72;;;17.80;60.50;;;;;;4999039;28;20173;-71
2022/04/17 12:33:22;;;;;;;8.60;5.30;;;17.80;64.00;;;;;;4998863;28;20042;-70
2022/04/17 12:36:05;;;;;;;8.32;4.90;;;17.90;61.20;;;;;;4998797;28;20042;-72
2022/04/17 12:38:31;;;;;;;9.55;5.07;;;18.00;63.60;;;;;;4965002;28;20149;-71
2022/04/17 12:40:57;;;;;;;7.78;4.93;;;18.00;59.10;;;;;;4998974;28;20137;-71
2022/04/17 12:43:29;;;;;;;7.63;4.65;;;18.00;59.20;;;;;;4998970;28;20116;-72
2022/04/17 12:46:04;;;;;;;7.53;4.90;;;17.90;60.10;;;;;;4981546;28;20069;-72
2022/04/17 12:48:36;;;;;;;8.77;5.63;;;18.00;59.60;;;;;;4999059;28;20038;-71
2022/04/17 12:51:06;;;;;;;8.82;5.20;;;18.10;58.40;;;;;;4984929;28;20039;-71
2022/04/17 12:53:43;;;;;;;7.00;4.55;;;18.00;59.70;;;;;;4962234;28;20062;-70
2022/04/17 12:56:11;;;;;;;7.28;5.00;;;18.10;62.50;;;;;;4985130;28;20038;-68
2022/04/17 12:58:48;;;;;;;8.32;4.95;;;18.20;60.20;;;;;;4985587;28;20046;-69
2022/04/17 13:01:24;;;;;;;6.70;4.22;;;18.20;58.10;;;;;;5008779;28;20073;-70